Time;durP1;ratioP1;P1;durP2;ratioP2;P2;SDS_P1;SDS_P2;PMS_P1;PMS_P2;Temp;Humidity;BMP_temperature;BMP_pressure;BME280_temperature;BME280_humidity;BME280_pressure;Samples;Min_cycle;Max_cycle;Signal;HPM_P1;HPM_P2
2023/10/18 00:01:16;;;;;;;1.70;1.55;;;;;;;;;;5056261;28;20056;-46
2023/10/18 00:03:41;;;;;;;1.05;0.85;;;;;;;;;;5056719;28;20434;-47
2023/10/18 00:06:16;;;;;;;2.25;1.70;;;;;;;;;;5053702;28;20025;-42
2023/10/18 00:08:45;;;;;;;3.40;2.00;;;;;;;;;;5057558;28;20048;-44
2023/10/18 00:11:10;;;;;;;1.80;1.45;;;;;;;;;;5063711;28;20025;-45
2023/10/18 00:13:36;;;;;;;3.00;1.77;;;;;;;;;;5061936;28;20025;-43
2023/10/18 00:16:06;;;;;;;2.97;1.45;;;;;;;;;;5060098;28;20040;-45
2023/10/18 00:18:32;;;;;;;2.13;1.40;;;;;;;;;;5061275;28;20048;-45
2023/10/18 00:21:05;;;;;;;3.13;1.00;;;;;;;;;;5059026;28;20029;-45
2023/10/18 00:23:32;;;;;;;2.25;1.05;;;;;;;;;;5064771;28;20044;-45
2023/10/18 00:25:59;;;;;;;1.75;1.23;;;;;;;;;;5056122;28;20021;-44
2023/10/18 00:28:26;;;;;;;2.45;1.15;;;;;;;;;;5057693;28;20071;-48
2023/10/18 00:30:52;;;;;;;1.83;1.45;;;;;;;;;;5061006;28;20028;-49
2023/10/18 00:33:18;;;;;;;1.45;1.25;;;;;;;;;;5057123;28;20043;-47
2023/10/18 00:35:44;;;;;;;1.45;1.30;;;;;;;;;;5054566;28;20064;-44
2023/10/18 00:38:15;;;;;;;2.35;1.08;;;;;;;;;;5056020;28;20106;-46
2023/10/18 00:40:45;;;;;;;1.73;1.35;;;;;;;;;;5051317;28;20044;-47
2023/10/18 00:43:22;;;;;;;2.42;1.67;;;;;;;;;;5048500;28;20124;-44
2023/10/18 00:45:52;;;;;;;3.45;1.30;;;;;;;;;;5057670;28;20037;-44
2023/10/18 00:48:20;;;;;;;4.35;1.23;;;;;;;;;;5055449;28;20072;-43
2023/10/18 00:50:48;;;;;;;2.42;1.63;;;;;;;;;;5057829;28;20032;-47
2023/10/18 00:53:19;;;;;;;1.92;1.38;;;;;;;;;;5053803;28;20077;-44
2023/10/18 00:55:48;;;;;;;1.95;1.17;;;;;;;;;;5060257;28;20028;-46
2023/10/18 00:58:15;;;;;;;3.33;1.98;;;;;;;;;;5050247;28;20033;-46
2023/10/18 01:00:41;;;;;;;3.00;1.27;;;;;;;;;;5057204;28;20025;-43
2023/10/18 01:03:09;;;;;;;3.10;1.30;;;;;;;;;;5050384;28;20045;-45
2023/10/18 01:05:35;;;;;;;2.78;1.38;;;;;;;;;;5050518;28;20047;-44
2023/10/18 01:08:06;;;;;;;2.53;1.73;;;;;;;;;;5051937;28;20049;-46
2023/10/18 01:10:33;;;;;;;3.72;1.70;;;;;;;;;;5059784;28;20020;-43
2023/10/18 01:13:01;;;;;;;3.10;1.02;;;;;;;;;;5055816;28;20052;-45
2023/10/18 01:15:28;;;;;;;2.47;1.30;;;;;;;;;;5054909;28;20037;-45
2023/10/18 01:17:54;;;;;;;3.08;2.10;;;;;;;;;;5056365;28;20559;-45
2023/10/18 01:22:57;;;;;;;2.53;1.33;;;;;;;;;;5056311;28;20045;-45
2023/10/18 01:25:24;;;;;;;3.83;1.95;;;;;;;;;;5056429;28;20475;-46
2023/10/18 01:27:50;;;;;;;2.70;1.40;;;;;;;;;;5055058;28;20493;-46
2023/10/18 01:30:19;;;;;;;2.63;1.60;;;;;;;;;;5045104;28;20410;-44
2023/10/18 01:32:44;;;;;;;2.20;1.73;;;;;;;;;;5058165;28;20041;-45
2023/10/18 01:35:13;;;;;;;2.92;1.42;;;;;;;;;;5056772;28;20024;-43
2023/10/18 01:37:39;;;;;;;4.82;1.60;;;;;;;;;;5050552;28;20091;-46
2023/10/18 01:40:20;;;;;;;3.75;1.35;;;;;;;;;;5051175;28;20029;-47
2023/10/18 01:42:50;;;;;;;3.17;1.35;;;;;;;;;;5048615;28;20469;-44
2023/10/18 01:45:22;;;;;;;4.22;1.23;;;;;;;;;;5043771;28;20387;-46
2023/10/18 01:47:48;;;;;;;2.42;2.00;;;;;;;;;;5055996;28;20453;-42
2023/10/18 01:50:14;;;;;;;2.70;1.83;;;;;;;;;;5061997;28;20025;-45
2023/10/18 01:52:41;;;;;;;1.92;1.27;;;;;;;;;;5055360;28;20032;-43
2023/10/18 01:55:09;;;;;;;3.05;1.30;;;;;;;;;;5055940;28;20025;-46
2023/10/18 01:57:34;;;;;;;2.67;1.77;;;;;;;;;;5050311;28;20101;-46
2023/10/18 02:00:00;;;;;;;3.65;2.42;;;;;;;;;;5053012;28;20037;-44
2023/10/18 02:02:26;;;;;;;2.35;2.10;;;;;;;;;;5057620;28;20124;-44
2023/10/18 02:04:54;;;;;;;2.08;1.67;;;;;;;;;;5057070;28;20068;-44
2023/10/18 02:07:19;;;;;;;3.38;1.75;;;;;;;;;;5051260;28;20045;-44
2023/10/18 02:09:48;;;;;;;3.22;1.63;;;;;;;;;;5059005;28;20466;-45
2023/10/18 02:12:19;;;;;;;3.58;1.48;;;;;;;;;;5047229;28;20041;-43
2023/10/18 02:14:56;;;;;;;2.50;1.73;;;;;;;;;;5051481;28;20043;-43
2023/10/18 02:17:21;;;;;;;2.30;1.40;;;;;;;;;;5055452;28;20044;-44
2023/10/18 02:19:47;;;;;;;2.70;1.70;;;;;;;;;;5054785;28;20032;-45
2023/10/18 02:22:13;;;;;;;3.17;2.50;;;;;;;;;;5055035;28;20041;-44
2023/10/18 02:24:42;;;;;;;3.15;1.42;;;;;;;;;;5057117;28;20116;-44
2023/10/18 02:27:09;;;;;;;2.88;1.83;;;;;;;;;;5055126;28;20041;-43
2023/10/18 02:29:35;;;;;;;2.28;1.60;;;;;;;;;;5055408;28;20093;-46
2023/10/18 02:32:21;;;;;;;3.78;1.80;;;;;;;;;;5061597;28;20078;-45
2023/10/18 02:34:47;;;;;;;4.47;2.13;;;;;;;;;;5051700;28;20033;-45
2023/10/18 02:37:15;;;;;;;3.15;1.77;;;;;;;;;;5046815;28;20041;-43
2023/10/18 02:39:41;;;;;;;3.53;1.95;;;;;;;;;;5061279;28;20020;-45
2023/10/18 02:42:07;;;;;;;4.50;1.67;;;;;;;;;;5048283;28;20049;-47
2023/10/18 02:44:34;;;;;;;2.95;1.90;;;;;;;;;;5054840;28;20025;-45
2023/10/18 02:47:22;;;;;;;3.20;1.17;;;;;;;;;;5059780;28;20045;-44
2023/10/18 02:49:51;;;;;;;2.10;1.35;;;;;;;;;;5060644;28;20028;-46
2023/10/18 02:52:17;;;;;;;3.03;1.38;;;;;;;;;;5053729;28;20044;-44
2023/10/18 02:54:44;;;;;;;2.08;1.83;;;;;;;;;;5056434;28;20028;-46
2023/10/18 02:57:10;;;;;;;3.60;1.70;;;;;;;;;;5059685;28;20060;-44
2023/10/18 02:59:36;;;;;;;2.47;1.52;;;;;;;;;;5051193;28;20037;-44
2023/10/18 03:02:03;;;;;;;4.57;2.15;;;;;;;;;;5062874;28;20052;-45
2023/10/18 03:04:29;;;;;;;3.45;1.85;;;;;;;;;;5062198;28;20032;-45
2023/10/18 03:06:57;;;;;;;3.70;2.35;;;;;;;;;;5056799;28;20053;-46
2023/10/18 03:09:40;;;;;;;2.17;1.77;;;;;;;;;;5064923;28;20029;-46
2023/10/18 03:12:13;;;;;;;3.45;1.73;;;;;;;;;;5060471;28;20126;-46
2023/10/18 03:14:53;;;;;;;1.90;1.73;;;;;;;;;;5061475;28;20096;-43
2023/10/18 03:20:29;;;;;;;4.75;2.28;;;;;;;;;;5061695;28;20025;-50
2023/10/18 03:22:39;;;;;;;3.63;2.05;;;;;;;;;;5050632;28;20043;-43
2023/10/18 03:25:09;;;;;;;2.53;2.33;;;;;;;;;;5053180;28;20085;-47
2023/10/18 03:27:41;;;;;;;11.32;3.42;;;;;;;;;;5051710;28;20120;-44
2023/10/18 03:30:17;;;;;;;2.95;2.35;;;;;;;;;;5059701;28;20023;-43
2023/10/18 03:32:43;;;;;;;2.53;2.17;;;;;;;;;;5058395;28;20061;-47
2023/10/18 03:35:09;;;;;;;4.05;1.55;;;;;;;;;;5057231;28;20032;-42
2023/10/18 03:37:39;;;;;;;3.97;2.35;;;;;;;;;;5056341;28;20041;-47
2023/10/18 03:40:20;;;;;;;3.20;1.30;;;;;;;;;;5057312;28;20037;-45
2023/10/18 03:42:46;;;;;;;3.50;1.45;;;;;;;;;;5049778;28;20040;-46
2023/10/18 03:45:12;;;;;;;3.65;1.20;;;;;;;;;;5059084;28;20048;-46
2023/10/18 03:47:38;;;;;;;5.43;1.83;;;;;;;;;;5057816;28;20044;-43
2023/10/18 03:50:15;;;;;;;5.18;1.88;;;;;;;;;;5062251;28;20074;-46
2023/10/18 03:52:45;;;;;;;3.00;1.63;;;;;;;;;;5044819;28;20117;-49
2023/10/18 03:55:16;;;;;;;1.98;1.58;;;;;;;;;;5060164;28;20087;-46
2023/10/18 03:57:42;;;;;;;5.22;2.25;;;;;;;;;;5057486;28;20087;-48
2023/10/18 04:03:07;;;;;;;5.00;1.55;;;;;;;;;;5059558;28;20487;-48
2023/10/18 04:05:45;;;;;;;2.15;1.55;;;;;;;;;;5057337;28;20032;-45
2023/10/18 04:08:15;;;;;;;2.40;2.20;;;;;;;;;;5050593;28;20132;-51
2023/10/18 04:10:44;;;;;;;4.65;1.65;;;;;;;;;;5050222;28;20022;-44
2023/10/18 04:13:14;;;;;;;2.67;1.35;;;;;;;;;;5058697;28;20140;-46
2023/10/18 04:15:46;;;;;;;2.38;2.03;;;;;;;;;;5050354;28;20096;-45
2023/10/18 04:18:12;;;;;;;3.17;1.77;;;;;;;;;;5058639;28;20029;-44
2023/10/18 04:20:42;;;;;;;3.58;1.42;;;;;;;;;;5066248;28;20032;-44
2023/10/18 04:23:28;;;;;;;3.08;2.20;;;;;;;;;;5064264;28;20039;-46
2023/10/18 04:26:01;;;;;;;2.47;1.73;;;;;;;;;;5059127;28;20090;-46
2023/10/18 04:28:31;;;;;;;4.70;2.40;;;;;;;;;;5051614;28;20607;-44
2023/10/18 04:31:00;;;;;;;3.28;3.05;;;;;;;;;;5050324;28;20013;-44
2023/10/18 04:33:36;;;;;;;3.20;1.58;;;;;;;;;;5057876;28;20056;-44
2023/10/18 04:36:11;;;;;;;5.68;2.25;;;;;;;;;;5056751;28;20028;-44
2023/10/18 04:38:42;;;;;;;4.32;1.50;;;;;;;;;;5055024;28;20045;-46
2023/10/18 04:41:09;;;;;;;4.05;1.73;;;;;;;;;;5053120;28;20372;-45
2023/10/18 04:43:36;;;;;;;2.47;1.98;;;;;;;;;;5063820;28;20068;-44
2023/10/18 04:46:26;;;;;;;2.25;1.85;;;;;;;;;;5058122;28;20067;-45
2023/10/18 04:51:27;;;;;;;3.20;1.23;;;;;;;;;;5062203;28;20017;-45
2023/10/18 04:54:00;;;;;;;3.47;1.67;;;;;;;;;;5055548;28;20048;-44
2023/10/18 04:56:34;;;;;;;2.67;1.45;;;;;;;;;;5057045;28;20048;-46
2023/10/18 04:59:06;;;;;;;3.13;1.92;;;;;;;;;;5058218;28;20040;-46
2023/10/18 05:01:36;;;;;;;3.08;1.88;;;;;;;;;;5049477;28;20035;-48
2023/10/18 05:04:46;;;;;;;3.38;2.47;;;;;;;;;;5055877;28;20083;-46
2023/10/18 05:06:56;;;;;;;5.82;2.05;;;;;;;;;;5040967;28;20037;-45
2023/10/18 05:12:16;;;;;;;3.65;1.55;;;;;;;;;;5064811;28;19987;-44
2023/10/18 05:17:17;;;;;;;3.60;1.52;;;;;;;;;;5062571;28;20066;-46
2023/10/18 05:19:44;;;;;;;3.63;1.65;;;;;;;;;;5051275;28;20380;-44
2023/10/18 05:22:16;;;;;;;4.28;1.67;;;;;;;;;;5056464;28;20033;-45
2023/10/18 05:24:42;;;;;;;1.80;1.42;;;;;;;;;;5062332;28;20470;-43
2023/10/18 05:27:19;;;;;;;5.45;3.33;;;;;;;;;;5058216;28;20117;-44
2023/10/18 05:29:52;;;;;;;4.07;1.73;;;;;;;;;;5043774;28;20476;-43
2023/10/18 05:35:12;;;;;;;3.72;1.80;;;;;;;;;;5052772;28;20025;-44
2023/10/18 05:37:41;;;;;;;4.25;1.60;;;;;;;;;;5049419;28;20045;-44
2023/10/18 05:42:51;;;;;;;4.30;2.17;;;;;;;;;;5055760;28;20039;-44
2023/10/18 05:45:16;;;;;;;2.60;1.50;;;;;;;;;;5054366;28;20029;-44
2023/10/18 05:47:42;;;;;;;2.55;1.75;;;;;;;;;;5057484;28;20033;-46
2023/10/18 05:50:12;;;;;;;3.10;1.95;;;;;;;;;;5050889;28;20090;-43
2023/10/18 05:52:39;;;;;;;3.83;2.33;;;;;;;;;;5049160;28;20071;-47
2023/10/18 05:55:10;;;;;;;4.50;1.63;;;;;;;;;;5047394;28;20038;-46
2023/10/18 05:57:37;;;;;;;3.22;1.60;;;;;;;;;;5053564;28;20513;-46
2023/10/18 06:00:16;;;;;;;3.92;1.75;;;;;;;;;;5051638;28;20029;-46
2023/10/18 06:02:42;;;;;;;3.80;1.65;;;;;;;;;;5049798;28;20044;-46
2023/10/18 06:05:09;;;;;;;2.05;1.77;;;;;;;;;;5057603;28;20036;-49
2023/10/18 06:07:35;;;;;;;1.98;1.73;;;;;;;;;;5055596;28;20045;-43
2023/10/18 06:10:09;;;;;;;2.20;1.35;;;;;;;;;;5052638;28;20028;-45
2023/10/18 06:12:40;;;;;;;3.30;1.95;;;;;;;;;;5049852;28;20094;-47
2023/10/18 06:15:12;;;;;;;2.28;2.00;;;;;;;;;;5056671;28;20090;-46
2023/10/18 06:17:47;;;;;;;2.80;1.98;;;;;;;;;;5055658;28;20048;-44
2023/10/18 06:20:29;;;;;;;5.00;1.80;;;;;;;;;;5055861;28;20028;-45
2023/10/18 06:23:08;;;;;;;3.25;1.38;;;;;;;;;;5052579;28;20048;-44
2023/10/18 06:25:44;;;;;;;1.75;1.55;;;;;;;;;;5053775;28;20479;-48
2023/10/18 06:28:10;;;;;;;2.75;1.42;;;;;;;;;;5049937;28;20075;-45
2023/10/18 06:30:39;;;;;;;2.40;1.80;;;;;;;;;;5048636;28;20029;-50
2023/10/18 06:33:15;;;;;;;5.00;1.77;;;;;;;;;;5051111;28;20033;-45
2023/10/18 06:35:53;;;;;;;4.30;2.05;;;;;;;;;;5046335;28;20025;-45
2023/10/18 06:38:22;;;;;;;4.47;2.03;;;;;;;;;;5044881;28;20047;-44
2023/10/18 06:41:00;;;;;;;4.03;2.33;;;;;;;;;;5047645;28;20483;-48
2023/10/18 06:43:26;;;;;;;6.00;1.60;;;;;;;;;;5047242;28;20063;-47
2023/10/18 06:45:57;;;;;;;9.15;2.75;;;;;;;;;;5055014;28;20025;-46
2023/10/18 06:48:26;;;;;;;5.00;2.40;;;;;;;;;;5053580;28;20029;-43
2023/10/18 06:50:53;;;;;;;3.83;1.75;;;;;;;;;;5055794;28;20040;-48
2023/10/18 06:53:20;;;;;;;3.20;1.58;;;;;;;;;;5055009;28;20036;-44
2023/10/18 06:55:55;;;;;;;5.22;2.00;;;;;;;;;;5061583;28;20047;-48
2023/10/18 07:00:51;;;;;;;4.45;2.38;;;;;;;;;;5058428;28;20028;-45
2023/10/18 07:03:16;;;;;;;3.50;2.92;;;;;;;;;;5055130;28;20041;-50
2023/10/18 07:05:44;;;;;;;2.30;2.05;;;;;;;;;;5055295;28;20048;-46
2023/10/18 07:08:19;;;;;;;2.35;0.93;;;;;;;;;;5056064;28;20052;-50
2023/10/18 07:10:55;;;;;;;4.18;1.10;;;;;;;;;;5061359;28;20108;-47
2023/10/18 07:13:34;;;;;;;4.80;1.25;;;;;;;;;;5042357;28;20044;-45
2023/10/18 07:16:14;;;;;;;5.45;2.67;;;;;;;;;;5047247;28;20399;-46
2023/10/18 07:18:42;;;;;;;2.85;1.80;;;;;;;;;;5051098;28;20033;-46
2023/10/18 07:21:09;;;;;;;5.68;1.88;;;;;;;;;;5047172;28;20064;-44
2023/10/18 07:23:36;;;;;;;4.97;1.98;;;;;;;;;;5047700;28;20040;-46
2023/10/18 07:26:13;;;;;;;2.90;1.73;;;;;;;;;;5044214;28;20032;-47
2023/10/18 07:28:40;;;;;;;2.97;1.63;;;;;;;;;;5049241;28;20033;-45
2023/10/18 07:31:09;;;;;;;5.03;1.98;;;;;;;;;;5045982;28;20036;-47
2023/10/18 07:33:41;;;;;;;4.82;2.63;;;;;;;;;;5055328;28;20032;-45
2023/10/18 07:36:17;;;;;;;3.45;1.58;;;;;;;;;;5051556;28;20041;-45
2023/10/18 07:38:55;;;;;;;2.63;1.60;;;;;;;;;;5050684;28;20053;-47
2023/10/18 07:41:26;;;;;;;4.75;2.53;;;;;;;;;;5046062;28;20029;-46
2023/10/18 07:43:57;;;;;;;6.75;2.38;;;;;;;;;;5054709;28;20032;-50
2023/10/18 07:46:27;;;;;;;3.95;2.03;;;;;;;;;;5056468;28;20032;-45
2023/10/18 07:48:54;;;;;;;5.43;2.00;;;;;;;;;;5061604;28;20024;-46
2023/10/18 07:51:31;;;;;;;2.58;1.73;;;;;;;;;;5068499;28;20049;-45
2023/10/18 07:53:57;;;;;;;4.28;1.80;;;;;;;;;;5057936;28;20032;-49
2023/10/18 07:56:27;;;;;;;1.95;1.75;;;;;;;;;;5061530;28;20025;-46
2023/10/18 07:58:53;;;;;;;3.75;1.80;;;;;;;;;;5051087;28;20108;-45
2023/10/18 08:04:04;;;;;;;5.47;2.33;;;;;;;;;;5059056;28;20047;-47
2023/10/18 08:06:33;;;;;;;4.47;2.47;;;;;;;;;;5056425;28;20024;-45
2023/10/18 08:09:05;;;;;;;3.67;2.70;;;;;;;;;;5058568;28;20048;-49
2023/10/18 08:11:34;;;;;;;3.63;2.30;;;;;;;;;;5066409;28;20036;-47
2023/10/18 08:14:01;;;;;;;10.98;2.75;;;;;;;;;;5068175;28;20028;-45
2023/10/18 08:16:27;;;;;;;4.75;2.50;;;;;;;;;;5056593;28;20025;-47
2023/10/18 08:18:53;;;;;;;5.68;3.10;;;;;;;;;;5062052;28;20485;-45
2023/10/18 08:21:39;;;;;;;4.85;2.53;;;;;;;;;;5056819;28;20078;-45
2023/10/18 08:24:09;;;;;;;3.30;2.30;;;;;;;;;;5054989;28;20465;-48
2023/10/18 08:26:59;;;;;;;4.28;3.05;;;;;;;;;;5058301;28;20028;-46
2023/10/18 08:29:23;;;;;;;5.93;1.98;;;;;;;;;;5056900;28;20152;-46
2023/10/18 08:31:48;;;;;;;4.22;2.90;;;;;;;;;;5053419;28;20118;-50
2023/10/18 08:34:18;;;;;;;7.30;2.50;;;;;;;;;;5052680;28;20029;-48
2023/10/18 08:36:46;;;;;;;5.07;3.00;;;;;;;;;;5073054;28;20028;-45
2023/10/18 08:39:12;;;;;;;;;;;;;;;;;;5052655;28;20025;-44
2023/10/18 08:41:49;;;;;;;4.57;2.35;;;;;;;;;;5056016;28;19987;-46
2023/10/18 08:44:21;;;;;;;4.35;2.03;;;;;;;;;;5057973;28;20040;-45
2023/10/18 08:49:51;;;;;;;3.38;1.80;;;;;;;;;;5056597;28;20032;-43
2023/10/18 08:52:21;;;;;;;2.63;1.58;;;;;;;;;;5058432;28;20063;-43
2023/10/18 08:54:53;;;;;;;3.15;1.65;;;;;;;;;;5051727;28;20075;-42
2023/10/18 08:57:35;;;;;;;2.90;2.15;;;;;;;;;;5060672;28;20057;-45
2023/10/18 09:00:55;;;;;;;3.63;2.67;;;;;;;;;;5056623;28;20040;-45
2023/10/18 09:02:54;;;;;;;4.50;2.60;;;;;;;;;;5057534;28;20053;-48
2023/10/18 09:05:24;;;;;;;4.88;1.83;;;;;;;;;;5061438;28;20031;-44
2023/10/18 09:07:54;;;;;;;3.65;2.15;;;;;;;;;;5054946;28;20053;-46
2023/10/18 09:13:29;;;;;;;5.05;2.30;;;;;;;;;;5059751;28;20059;-47
2023/10/18 09:18:19;;;;;;;3.72;1.85;;;;;;;;;;5053438;28;20108;-47
2023/10/18 09:20:46;;;;;;;8.07;1.80;;;;;;;;;;5055474;28;20033;-49
2023/10/18 09:23:20;;;;;;;4.63;2.03;;;;;;;;;;5050441;28;20048;-44
2023/10/18 09:25:49;;;;;;;3.92;2.10;;;;;;;;;;5056173;28;20485;-45
2023/10/18 09:30:53;;;;;;;4.65;3.25;;;;;;;;;;5054215;28;20021;-44
2023/10/18 09:33:19;;;;;;;3.90;2.15;;;;;;;;;;5054683;28;20467;-46
2023/10/18 09:35:48;;;;;;;5.07;3.20;;;;;;;;;;5052395;28;20024;-43
2023/10/18 09:38:17;;;;;;;5.47;1.92;;;;;;;;;;5059079;28;20033;-42
2023/10/18 09:40:42;;;;;;;6.78;2.03;;;;;;;;;;5049490;28;20455;-44
2023/10/18 09:43:08;;;;;;;3.95;2.42;;;;;;;;;;5054171;28;20047;-44
2023/10/18 09:45:33;;;;;;;3.25;1.92;;;;;;;;;;5046068;28;20056;-43
2023/10/18 09:48:00;;;;;;;4.07;2.08;;;;;;;;;;5048310;28;20044;-48
2023/10/18 09:50:31;;;;;;;3.58;2.13;;;;;;;;;;5048622;28;20035;-43
2023/10/18 09:52:57;;;;;;;2.88;1.80;;;;;;;;;;5052082;28;20045;-46
2023/10/18 09:55:26;;;;;;;6.20;2.08;;;;;;;;;;5052037;28;20024;-45
2023/10/18 09:58:07;;;;;;;5.28;2.08;;;;;;;;;;5051194;28;20037;-43
2023/10/18 10:00:41;;;;;;;5.88;2.42;;;;;;;;;;5051535;28;20113;-45
2023/10/18 10:03:10;;;;;;;3.17;1.75;;;;;;;;;;5059885;28;20147;-46
2023/10/18 10:05:43;;;;;;;4.13;2.95;;;;;;;;;;5047512;28;20036;-47
2023/10/18 10:08:09;;;;;;;4.97;2.40;;;;;;;;;;5048958;28;20134;-43
2023/10/18 10:10:44;;;;;;;7.90;2.85;;;;;;;;;;5051841;28;20082;-44
2023/10/18 10:13:25;;;;;;;7.97;2.83;;;;;;;;;;5050502;28;20044;-42
2023/10/18 10:16:08;;;;;;;5.13;3.03;;;;;;;;;;5060805;28;20034;-45
2023/10/18 10:18:37;;;;;;;5.35;2.70;;;;;;;;;;5041389;28;20045;-44
2023/10/18 10:21:08;;;;;;;6.63;2.92;;;;;;;;;;5046844;28;20074;-47
2023/10/18 10:23:35;;;;;;;6.35;2.38;;;;;;;;;;5050157;28;20037;-44
2023/10/18 10:26:12;;;;;;;5.80;3.10;;;;;;;;;;5046361;28;20033;-45
2023/10/18 10:31:51;;;;;;;6.47;3.83;;;;;;;;;;5051177;28;20020;-46
2023/10/18 10:34:28;;;;;;;5.07;2.20;;;;;;;;;;5052909;28;20036;-46
2023/10/18 10:37:07;;;;;;;5.70;2.97;;;;;;;;;;5047052;28;20090;-47
2023/10/18 10:39:36;;;;;;;4.63;3.55;;;;;;;;;;5048454;28;20097;-46
2023/10/18 10:42:19;;;;;;;3.53;2.75;;;;;;;;;;5044144;28;20079;-43
2023/10/18 10:45:10;;;;;;;5.78;2.90;;;;;;;;;;5054822;28;20068;-46
2023/10/18 10:47:42;;;;;;;5.72;2.33;;;;;;;;;;5051827;28;20060;-44
2023/10/18 10:50:09;;;;;;;5.25;2.42;;;;;;;;;;5050857;28;20094;-47
2023/10/18 10:52:40;;;;;;;5.07;3.00;;;;;;;;;;5060767;28;20048;-46
2023/10/18 10:55:22;;;;;;;4.55;2.33;;;;;;;;;;5055284;28;20037;-45
2023/10/18 10:57:49;;;;;;;5.88;2.95;;;;;;;;;;5050179;28;20033;-43
2023/10/18 11:03:13;;;;;;;4.53;2.42;;;;;;;;;;5051200;28;20048;-44
2023/10/18 11:05:39;;;;;;;4.50;2.72;;;;;;;;;;5057457;28;20033;-44
2023/10/18 11:08:12;;;;;;;4.47;3.72;;;;;;;;;;5042650;28;20057;-46
2023/10/18 11:10:39;;;;;;;4.70;2.78;;;;;;;;;;5054766;28;20024;-43
2023/10/18 11:13:13;;;;;;;6.07;2.20;;;;;;;;;;5053027;28;20395;-47
2023/10/18 11:15:42;;;;;;;6.28;2.65;;;;;;;;;;5049884;28;20037;-46
2023/10/18 11:18:20;;;;;;;4.32;2.53;;;;;;;;;;5056369;28;20063;-45
2023/10/18 11:21:05;;;;;;;8.05;4.03;;;;;;;;;;5060712;28;20029;-48
2023/10/18 11:23:33;;;;;;;6.40;2.88;;;;;;;;;;5052367;28;20041;-47
2023/10/18 11:26:08;;;;;;;6.10;2.60;;;;;;;;;;5060268;28;20082;-43
2023/10/18 11:28:37;;;;;;;5.93;3.67;;;;;;;;;;5057368;28;20457;-45
2023/10/18 11:31:04;;;;;;;6.30;3.35;;;;;;;;;;5061266;28;20031;-45
2023/10/18 11:36:21;;;;;;;8.93;4.47;;;;;;;;;;5062209;28;20084;-47
2023/10/18 11:41:35;;;;;;;8.68;3.85;;;;;;;;;;5056605;28;20074;-43
2023/10/18 11:44:08;;;;;;;10.60;3.95;;;;;;;;;;5052887;28;20021;-44
2023/10/18 11:47:00;;;;;;;6.85;3.75;;;;;;;;;;5045959;28;20028;-44
2023/10/18 11:49:40;;;;;;;7.60;3.80;;;;;;;;;;5054493;28;20104;-45
2023/10/18 11:52:21;;;;;;;8.80;3.97;;;;;;;;;;5056046;28;20057;-44
2023/10/18 11:54:51;;;;;;;7.95;4.28;;;;;;;;;;5061507;28;20093;-47
2023/10/18 11:57:24;;;;;;;8.75;4.05;;;;;;;;;;5070132;28;20566;-44
2023/10/18 11:59:52;;;;;;;11.18;4.50;;;;;;;;;;5053513;28;20402;-44
2023/10/18 12:02:17;;;;;;;8.88;3.60;;;;;;;;;;5056225;28;20029;-43
2023/10/18 12:04:45;;;;;;;13.00;3.55;;;;;;;;;;5051452;28;20029;-47
2023/10/18 12:07:13;;;;;;;6.53;4.40;;;;;;;;;;5054769;28;20054;-44
2023/10/18 12:09:46;;;;;;;8.52;4.50;;;;;;;;;;5055099;28;20052;-45
2023/10/18 12:12:19;;;;;;;11.05;3.67;;;;;;;;;;5049685;28;20563;-44
2023/10/18 12:14:45;;;;;;;7.53;3.92;;;;;;;;;;5055676;28;20029;-47
2023/10/18 12:17:15;;;;;;;9.52;4.00;;;;;;;;;;5061023;28;20036;-46
2023/10/18 12:19:41;;;;;;;8.35;3.67;;;;;;;;;;5050607;28;20036;-43
2023/10/18 12:22:13;;;;;;;7.10;3.30;;;;;;;;;;5054094;28;20601;-45
2023/10/18 12:24:41;;;;;;;12.82;4.25;;;;;;;;;;5047739;28;20467;-44
2023/10/18 12:27:18;;;;;;;7.88;3.78;;;;;;;;;;5058743;28;20051;-44
2023/10/18 12:29:45;;;;;;;10.50;4.05;;;;;;;;;;5054732;28;20437;-48
2023/10/18 12:32:22;;;;;;;9.68;4.10;;;;;;;;;;5051428;28;20066;-45
2023/10/18 12:34:52;;;;;;;12.32;5.47;;;;;;;;;;5046598;28;20064;-44
2023/10/18 12:37:21;;;;;;;7.40;3.65;;;;;;;;;;5053994;28;20036;-47
2023/10/18 12:39:46;;;;;;;8.10;3.30;;;;;;;;;;5057015;28;20029;-47
2023/10/18 12:42:19;;;;;;;6.38;4.38;;;;;;;;;;5055383;28;20032;-48
2023/10/18 12:44:47;;;;;;;7.05;4.28;;;;;;;;;;5056275;28;20043;-45
2023/10/18 12:47:19;;;;;;;18.77;6.35;;;;;;;;;;5052718;28;20047;-47
2023/10/18 12:49:50;;;;;;;6.88;4.28;;;;;;;;;;5045850;28;20103;-46
2023/10/18 12:55:17;;;;;;;6.55;4.22;;;;;;;;;;5049120;28;20130;-44
2023/10/18 12:57:49;;;;;;;10.25;5.05;;;;;;;;;;5061298;28;20037;-46
2023/10/18 13:00:16;;;;;;;9.35;4.85;;;;;;;;;;5054433;28;20025;-44
2023/10/18 13:05:22;;;;;;;8.15;4.13;;;;;;;;;;5048586;28;20037;-46
2023/10/18 13:07:52;;;;;;;9.57;4.80;;;;;;;;;;5055421;28;20045;-47
2023/10/18 13:10:31;;;;;;;8.30;4.30;;;;;;;;;;5050511;28;20039;-50
2023/10/18 13:12:57;;;;;;;9.40;3.70;;;;;;;;;;5055607;28;20045;-48
2023/10/18 13:15:22;;;;;;;9.10;3.70;;;;;;;;;;5051809;28;20504;-48
2023/10/18 13:17:49;;;;;;;9.88;4.72;;;;;;;;;;5052499;28;20552;-46
2023/10/18 13:20:18;;;;;;;7.97;4.30;;;;;;;;;;5054473;28;20467;-45
2023/10/18 13:22:44;;;;;;;11.27;4.90;;;;;;;;;;5052020;28;20072;-48
2023/10/18 13:25:24;;;;;;;8.95;5.13;;;;;;;;;;5056489;28;20028;-44
2023/10/18 13:27:50;;;;;;;9.02;4.22;;;;;;;;;;5059450;28;20040;-50
2023/10/18 13:33:11;;;;;;;7.22;4.50;;;;;;;;;;5063289;28;20060;-46
2023/10/18 13:35:39;;;;;;;11.48;3.78;;;;;;;;;;5052227;28;20441;-50
2023/10/18 13:38:04;;;;;;;7.97;3.22;;;;;;;;;;5054065;28;20410;-47
2023/10/18 13:40:36;;;;;;;7.18;3.67;;;;;;;;;;5057925;28;20032;-45
2023/10/18 13:43:06;;;;;;;7.50;3.05;;;;;;;;;;5047859;28;20501;-47
2023/10/18 13:45:33;;;;;;;7.35;3.53;;;;;;;;;;5062402;28;20627;-50
2023/10/18 13:48:02;;;;;;;6.57;3.92;;;;;;;;;;5052245;28;20103;-47
2023/10/18 13:50:53;;;;;;;5.93;3.22;;;;;;;;;;5059000;28;20021;-48
2023/10/18 13:53:18;;;;;;;6.28;4.22;;;;;;;;;;5050379;28;20044;-44
2023/10/18 13:55:44;;;;;;;10.23;3.13;;;;;;;;;;5057884;28;20036;-44
2023/10/18 13:58:10;;;;;;;4.75;3.47;;;;;;;;;;5053526;28;20049;-45
2023/10/18 14:00:40;;;;;;;7.55;3.15;;;;;;;;;;5052359;28;20033;-47
2023/10/18 14:03:07;;;;;;;15.63;3.60;;;;;;;;;;5053845;28;20110;-50
2023/10/18 14:05:39;;;;;;;6.18;2.70;;;;;;;;;;5052985;28;20020;-44
2023/10/18 14:08:07;;;;;;;8.02;3.28;;;;;;;;;;5061372;28;20056;-45
2023/10/18 14:10:35;;;;;;;5.95;3.08;;;;;;;;;;5060404;28;20391;-47
2023/10/18 14:13:03;;;;;;;5.57;2.97;;;;;;;;;;5058346;28;20406;-48
2023/10/18 14:15:29;;;;;;;5.25;2.50;;;;;;;;;;5054003;28;20390;-47
2023/10/18 14:17:55;;;;;;;5.35;2.92;;;;;;;;;;5057247;28;20067;-47
2023/10/18 14:20:30;;;;;;;4.13;3.30;;;;;;;;;;5047402;28;20075;-46
2023/10/18 14:22:56;;;;;;;11.38;3.45;;;;;;;;;;5055722;28;20041;-49
2023/10/18 14:25:26;;;;;;;7.68;3.65;;;;;;;;;;5074710;28;20028;-48
2023/10/18 14:27:53;;;;;;;5.20;2.97;;;;;;;;;;5055489;28;20040;-47
2023/10/18 14:30:19;;;;;;;7.72;3.42;;;;;;;;;;5058778;28;20026;-47
2023/10/18 14:32:45;;;;;;;6.05;3.25;;;;;;;;;;5058959;28;20048;-48
2023/10/18 14:35:17;;;;;;;4.78;2.97;;;;;;;;;;5059293;28;20021;-48
2023/10/18 14:37:46;;;;;;;4.15;2.72;;;;;;;;;;5055232;28;20534;-47
2023/10/18 14:40:12;;;;;;;7.15;3.28;;;;;;;;;;5056337;28;20028;-45
2023/10/18 14:42:37;;;;;;;6.75;3.35;;;;;;;;;;5054140;28;20037;-45
2023/10/18 14:45:06;;;;;;;4.93;3.03;;;;;;;;;;5058619;28;20051;-44
2023/10/18 14:47:32;;;;;;;6.07;2.75;;;;;;;;;;5054407;28;20037;-46
2023/10/18 14:49:58;;;;;;;5.22;3.00;;;;;;;;;;5054861;28;20035;-45
2023/10/18 14:52:25;;;;;;;8.98;4.20;;;;;;;;;;5048118;28;20033;-44
2023/10/18 14:54:51;;;;;;;4.78;3.58;;;;;;;;;;5045197;28;20048;-45
2023/10/18 14:57:19;;;;;;;5.72;2.83;;;;;;;;;;5045433;28;20584;-45
2023/10/18 14:59:47;;;;;;;4.30;2.95;;;;;;;;;;5054547;28;20029;-45
2023/10/18 15:02:13;;;;;;;6.22;2.85;;;;;;;;;;5054486;28;20028;-46
2023/10/18 15:04:40;;;;;;;3.72;2.55;;;;;;;;;;5047513;28;20552;-47
2023/10/18 15:07:06;;;;;;;4.93;2.97;;;;;;;;;;5056003;28;20557;-43
2023/10/18 15:09:31;;;;;;;6.70;3.50;;;;;;;;;;5055854;28;20032;-46
2023/10/18 15:11:57;;;;;;;6.13;2.92;;;;;;;;;;5051670;28;20037;-45
2023/10/18 15:14:22;;;;;;;4.47;2.17;;;;;;;;;;5059007;28;20050;-46
2023/10/18 15:16:47;;;;;;;6.57;3.00;;;;;;;;;;5052769;28;20040;-49
2023/10/18 15:19:15;;;;;;;6.10;3.35;;;;;;;;;;5051462;28;20037;-45
2023/10/18 15:21:42;;;;;;;7.22;2.25;;;;;;;;;;5056789;28;20041;-46
2023/10/18 15:24:08;;;;;;;7.40;3.22;;;;;;;;;;5061464;28;20112;-45
2023/10/18 15:26:38;;;;;;;4.10;2.28;;;;;;;;;;5052060;28;20048;-46
2023/10/18 15:29:09;;;;;;;6.22;3.17;;;;;;;;;;5062596;28;20028;-49
2023/10/18 15:31:36;;;;;;;5.35;3.20;;;;;;;;;;5046618;28;20021;-47
2023/10/18 15:34:01;;;;;;;10.15;3.28;;;;;;;;;;5051496;28;20457;-45
2023/10/18 15:36:28;;;;;;;5.43;3.10;;;;;;;;;;5047352;28;20021;-44
2023/10/18 15:38:55;;;;;;;5.30;2.65;;;;;;;;;;5046331;28;20025;-45
2023/10/18 15:41:21;;;;;;;5.85;3.00;;;;;;;;;;5053746;28;20029;-46
2023/10/18 15:43:49;;;;;;;5.30;3.50;;;;;;;;;;5053957;28;20024;-49
2023/10/18 15:46:19;;;;;;;7.05;2.55;;;;;;;;;;5043744;28;20654;-45
2023/10/18 15:48:49;;;;;;;6.95;3.55;;;;;;;;;;5049550;28;20040;-47
2023/10/18 15:51:16;;;;;;;5.03;3.15;;;;;;;;;;5057966;28;20023;-47
2023/10/18 15:53:42;;;;;;;4.53;2.97;;;;;;;;;;5058481;28;20041;-44
2023/10/18 15:56:11;;;;;;;5.97;3.13;;;;;;;;;;5056574;28;20060;-48
2023/10/18 15:58:47;;;;;;;5.78;3.17;;;;;;;;;;5058252;28;20406;-47